sensor_id;sensor_type;location;lat;lon;timestamp;P1;durP1;ratioP1;P2;durP2;ratioP2
15177;SDS011;7689;53.612;-2.416;2022-08-26T00:00:38;5.97;;;1.87;;
15177;SDS011;7689;53.612;-2.416;2022-08-26T00:03:04;3.73;;;1.90;;
15177;SDS011;7689;53.612;-2.416;2022-08-26T00:05:29;3.30;;;1.80;;
15177;SDS011;7689;53.612;-2.416;2022-08-26T00:07:55;7.40;;;2.30;;
15177;SDS011;7689;53.612;-2.416;2022-08-26T00:10:21;4.33;;;1.70;;
15177;SDS011;7689;53.612;-2.416;2022-08-26T00:12:47;3.97;;;2.00;;
15177;SDS011;7689;53.612;-2.416;2022-08-26T00:15:13;3.53;;;1.70;;
15177;SDS011;7689;53.612;-2.416;2022-08-26T00:17:40;5.03;;;2.00;;
15177;SDS011;7689;53.612;-2.416;2022-08-26T00:20:07;1.90;;;1.67;;
15177;SDS011;7689;53.612;-2.416;2022-08-26T00:22:34;3.88;;;2.03;;
15177;SDS011;7689;53.612;-2.416;2022-08-26T00:25:01;3.23;;;1.60;;
15177;SDS011;7689;53.612;-2.416;2022-08-26T00:27:27;3.25;;;1.65;;
15177;SDS011;7689;53.612;-2.416;2022-08-26T00:29:53;3.53;;;1.77;;
15177;SDS011;7689;53.612;-2.416;2022-08-26T00:32:19;4.90;;;1.60;;
15177;SDS011;7689;53.612;-2.416;2022-08-26T00:34:44;3.33;;;1.60;;
15177;SDS011;7689;53.612;-2.416;2022-08-26T00:37:10;5.35;;;1.60;;
15177;SDS011;7689;53.612;-2.416;2022-08-26T00:39:35;2.43;;;1.60;;
15177;SDS011;7689;53.612;-2.416;2022-08-26T00:42:01;3.28;;;1.80;;
15177;SDS011;7689;53.612;-2.416;2022-08-26T00:44:27;3.30;;;1.92;;
15177;SDS011;7689;53.612;-2.416;2022-08-26T00:46:54;3.13;;;1.50;;
15177;SDS011;7689;53.612;-2.416;2022-08-26T00:49:35;3.42;;;1.90;;
15177;SDS011;7689;53.612;-2.416;2022-08-26T00:52:03;1.70;;;1.60;;
15177;SDS011;7689;53.612;-2.416;2022-08-26T00:54:33;1.95;;;1.60;;
15177;SDS011;7689;53.612;-2.416;2022-08-26T00:57:08;1.77;;;1.67;;
15177;SDS011;7689;53.612;-2.416;2022-08-26T00:59:35;3.38;;;1.60;;
15177;SDS011;7689;53.612;-2.416;2022-08-26T01:02:01;4.23;;;1.70;;
15177;SDS011;7689;53.612;-2.416;2022-08-26T01:04:28;2.75;;;1.55;;
15177;SDS011;7689;53.612;-2.416;2022-08-26T01:06:55;3.87;;;1.20;;
15177;SDS011;7689;53.612;-2.416;2022-08-26T01:09:21;3.43;;;1.37;;
15177;SDS011;7689;53.612;-2.416;2022-08-26T01:11:48;3.45;;;1.33;;
15177;SDS011;7689;53.612;-2.416;2022-08-26T01:14:18;4.73;;;1.60;;
15177;SDS011;7689;53.612;-2.416;2022-08-26T01:16:46;3.90;;;1.58;;
15177;SDS011;7689;53.612;-2.416;2022-08-26T01:19:16;2.10;;;1.40;;
15177;SDS011;7689;53.612;-2.416;2022-08-26T01:21:48;3.47;;;1.73;;
15177;SDS011;7689;53.612;-2.416;2022-08-26T01:24:56;1.52;;;1.30;;
15177;SDS011;7689;53.612;-2.416;2022-08-26T01:27:24;1.95;;;1.27;;
15177;SDS011;7689;53.612;-2.416;2022-08-26T01:29:55;1.63;;;1.50;;
15177;SDS011;7689;53.612;-2.416;2022-08-26T01:32:22;3.13;;;1.40;;
15177;SDS011;7689;53.612;-2.416;2022-08-26T01:34:50;3.10;;;1.52;;
15177;SDS011;7689;53.612;-2.416;2022-08-26T01:37:25;4.20;;;1.50;;
15177;SDS011;7689;53.612;-2.416;2022-08-26T01:39:56;1.65;;;1.30;;
15177;SDS011;7689;53.612;-2.416;2022-08-26T01:42:23;3.08;;;1.52;;
15177;SDS011;7689;53.612;-2.416;2022-08-26T01:44:53;3.47;;;1.70;;
15177;SDS011;7689;53.612;-2.416;2022-08-26T01:47:24;4.47;;;1.53;;
15177;SDS011;7689;53.612;-2.416;2022-08-26T01:49:53;2.70;;;1.53;;
15177;SDS011;7689;53.612;-2.416;2022-08-26T01:52:25;2.20;;;1.60;;
15177;SDS011;7689;53.612;-2.416;2022-08-26T01:54:52;3.40;;;1.50;;
15177;SDS011;7689;53.612;-2.416;2022-08-26T01:57:20;2.40;;;1.70;;
15177;SDS011;7689;53.612;-2.416;2022-08-26T01:59:48;2.93;;;1.50;;
15177;SDS011;7689;53.612;-2.416;2022-08-26T02:02:14;3.30;;;1.57;;
15177;SDS011;7689;53.612;-2.416;2022-08-26T02:04:48;2.90;;;1.70;;
15177;SDS011;7689;53.612;-2.416;2022-08-26T02:07:17;1.83;;;1.73;;
15177;SDS011;7689;53.612;-2.416;2022-08-26T02:09:44;5.25;;;1.70;;
15177;SDS011;7689;53.612;-2.416;2022-08-26T02:12:10;2.58;;;1.50;;
15177;SDS011;7689;53.612;-2.416;2022-08-26T02:14:40;1.90;;;1.77;;
15177;SDS011;7689;53.612;-2.416;2022-08-26T02:17:08;1.85;;;1.73;;
15177;SDS011;7689;53.612;-2.416;2022-08-26T02:19:36;2.87;;;1.77;;
15177;SDS011;7689;53.612;-2.416;2022-08-26T02:22:07;3.15;;;1.90;;
15177;SDS011;7689;53.612;-2.416;2022-08-26T02:27:36;2.25;;;1.83;;
15177;SDS011;7689;53.612;-2.416;2022-08-26T02:32:34;4.68;;;2.30;;
15177;SDS011;7689;53.612;-2.416;2022-08-26T02:34:59;1.42;;;1.33;;
15177;SDS011;7689;53.612;-2.416;2022-08-26T02:37:27;1.40;;;1.30;;
15177;SDS011;7689;53.612;-2.416;2022-08-26T02:39:54;2.35;;;1.60;;
15177;SDS011;7689;53.612;-2.416;2022-08-26T02:42:20;3.55;;;1.60;;
15177;SDS011;7689;53.612;-2.416;2022-08-26T02:44:47;2.28;;;1.83;;
15177;SDS011;7689;53.612;-2.416;2022-08-26T02:47:13;3.17;;;1.20;;
15177;SDS011;7689;53.612;-2.416;2022-08-26T02:49:41;2.70;;;1.83;;
15177;SDS011;7689;53.612;-2.416;2022-08-26T02:52:07;2.25;;;1.60;;
15177;SDS011;7689;53.612;-2.416;2022-08-26T02:54:33;5.53;;;1.48;;
15177;SDS011;7689;53.612;-2.416;2022-08-26T02:56:59;4.20;;;1.40;;
15177;SDS011;7689;53.612;-2.416;2022-08-26T02:59:25;4.30;;;1.30;;
15177;SDS011;7689;53.612;-2.416;2022-08-26T03:01:51;4.68;;;1.45;;
15177;SDS011;7689;53.612;-2.416;2022-08-26T03:04:17;2.05;;;1.48;;
15177;SDS011;7689;53.612;-2.416;2022-08-26T03:06:43;3.05;;;1.50;;
15177;SDS011;7689;53.612;-2.416;2022-08-26T03:09:09;2.45;;;1.50;;
15177;SDS011;7689;53.612;-2.416;2022-08-26T03:11:35;2.08;;;1.48;;
15177;SDS011;7689;53.612;-2.416;2022-08-26T03:14:02;2.75;;;1.60;;
15177;SDS011;7689;53.612;-2.416;2022-08-26T03:16:31;4.28;;;1.60;;
15177;SDS011;7689;53.612;-2.416;2022-08-26T03:19:01;2.85;;;1.95;;
15177;SDS011;7689;53.612;-2.416;2022-08-26T03:21:28;2.70;;;1.58;;
15177;SDS011;7689;53.612;-2.416;2022-08-26T03:23:54;2.80;;;1.48;;
15177;SDS011;7689;53.612;-2.416;2022-08-26T03:26:20;1.95;;;1.58;;
15177;SDS011;7689;53.612;-2.416;2022-08-26T03:28:46;2.47;;;1.55;;
15177;SDS011;7689;53.612;-2.416;2022-08-26T03:31:30;1.60;;;1.45;;
15177;SDS011;7689;53.612;-2.416;2022-08-26T03:33:56;5.43;;;1.55;;
15177;SDS011;7689;53.612;-2.416;2022-08-26T03:36:21;6.65;;;2.25;;
15177;SDS011;7689;53.612;-2.416;2022-08-26T03:38:47;3.03;;;1.95;;
15177;SDS011;7689;53.612;-2.416;2022-08-26T03:41:13;2.45;;;1.42;;
15177;SDS011;7689;53.612;-2.416;2022-08-26T03:43:40;3.72;;;1.38;;
15177;SDS011;7689;53.612;-2.416;2022-08-26T03:46:06;3.40;;;1.50;;
15177;SDS011;7689;53.612;-2.416;2022-08-26T03:48:33;2.30;;;1.30;;
15177;SDS011;7689;53.612;-2.416;2022-08-26T03:51:00;4.78;;;1.83;;
15177;SDS011;7689;53.612;-2.416;2022-08-26T03:53:26;2.65;;;1.73;;
15177;SDS011;7689;53.612;-2.416;2022-08-26T03:55:52;1.75;;;1.65;;
15177;SDS011;7689;53.612;-2.416;2022-08-26T03:58:18;2.05;;;1.95;;
15177;SDS011;7689;53.612;-2.416;2022-08-26T04:00:45;2.47;;;1.35;;
15177;SDS011;7689;53.612;-2.416;2022-08-26T04:03:10;4.15;;;1.48;;
15177;SDS011;7689;53.612;-2.416;2022-08-26T04:05:38;4.53;;;1.85;;
15177;SDS011;7689;53.612;-2.416;2022-08-26T04:08:04;2.17;;;1.60;;
15177;SDS011;7689;53.612;-2.416;2022-08-26T04:10:30;1.75;;;1.52;;
15177;SDS011;7689;53.612;-2.416;2022-08-26T04:12:56;2.67;;;1.70;;
15177;SDS011;7689;53.612;-2.416;2022-08-26T04:15:22;4.47;;;1.58;;
15177;SDS011;7689;53.612;-2.416;2022-08-26T04:17:48;3.00;;;1.67;;
15177;SDS011;7689;53.612;-2.416;2022-08-26T04:20:14;3.15;;;1.73;;
15177;SDS011;7689;53.612;-2.416;2022-08-26T04:22:42;4.63;;;2.25;;
15177;SDS011;7689;53.612;-2.416;2022-08-26T04:25:09;1.95;;;1.70;;
15177;SDS011;7689;53.612;-2.416;2022-08-26T04:27:35;1.95;;;1.60;;
15177;SDS011;7689;53.612;-2.416;2022-08-26T04:30:01;2.90;;;1.73;;
15177;SDS011;7689;53.612;-2.416;2022-08-26T04:32:27;3.05;;;1.80;;
15177;SDS011;7689;53.612;-2.416;2022-08-26T04:34:53;2.60;;;1.80;;
15177;SDS011;7689;53.612;-2.416;2022-08-26T04:37:19;1.60;;;1.50;;
15177;SDS011;7689;53.612;-2.416;2022-08-26T04:39:44;2.40;;;1.52;;
15177;SDS011;7689;53.612;-2.416;2022-08-26T04:42:14;2.40;;;1.55;;
15177;SDS011;7689;53.612;-2.416;2022-08-26T04:44:39;5.53;;;1.83;;
15177;SDS011;7689;53.612;-2.416;2022-08-26T04:47:05;3.80;;;1.80;;
15177;SDS011;7689;53.612;-2.416;2022-08-26T04:49:31;2.55;;;1.73;;
15177;SDS011;7689;53.612;-2.416;2022-08-26T04:51:56;1.50;;;1.40;;
15177;SDS011;7689;53.612;-2.416;2022-08-26T04:54:22;3.55;;;1.73;;
15177;SDS011;7689;53.612;-2.416;2022-08-26T04:56:48;1.60;;;1.50;;
15177;SDS011;7689;53.612;-2.416;2022-08-26T04:59:15;2.67;;;1.58;;
15177;SDS011;7689;53.612;-2.416;2022-08-26T05:01:45;2.58;;;1.80;;
15177;SDS011;7689;53.612;-2.416;2022-08-26T05:04:13;1.73;;;1.63;;
15177;SDS011;7689;53.612;-2.416;2022-08-26T05:06:39;4.93;;;1.90;;
15177;SDS011;7689;53.612;-2.416;2022-08-26T05:09:05;3.47;;;1.92;;
15177;SDS011;7689;53.612;-2.416;2022-08-26T05:11:31;7.82;;;2.30;;
15177;SDS011;7689;53.612;-2.416;2022-08-26T05:13:57;5.50;;;2.40;;
15177;SDS011;7689;53.612;-2.416;2022-08-26T05:16:22;6.07;;;2.53;;
15177;SDS011;7689;53.612;-2.416;2022-08-26T05:18:48;3.47;;;2.15;;
15177;SDS011;7689;53.612;-2.416;2022-08-26T05:21:18;4.32;;;2.50;;
15177;SDS011;7689;53.612;-2.416;2022-08-26T05:23:46;6.55;;;2.50;;
15177;SDS011;7689;53.612;-2.416;2022-08-26T05:26:15;5.72;;;2.50;;
15177;SDS011;7689;53.612;-2.416;2022-08-26T05:28:42;6.32;;;3.15;;
15177;SDS011;7689;53.612;-2.416;2022-08-26T05:31:15;6.78;;;3.10;;
15177;SDS011;7689;53.612;-2.416;2022-08-26T05:33:42;11.13;;;3.53;;
15177;SDS011;7689;53.612;-2.416;2022-08-26T05:36:09;9.73;;;3.30;;
15177;SDS011;7689;53.612;-2.416;2022-08-26T05:38:37;5.80;;;2.85;;
15177;SDS011;7689;53.612;-2.416;2022-08-26T05:41:03;3.63;;;3.33;;
15177;SDS011;7689;53.612;-2.416;2022-08-26T05:43:38;4.78;;;2.90;;
15177;SDS011;7689;53.612;-2.416;2022-08-26T05:46:05;5.22;;;3.60;;
15177;SDS011;7689;53.612;-2.416;2022-08-26T05:48:31;6.50;;;3.28;;
15177;SDS011;7689;53.612;-2.416;2022-08-26T05:51:00;3.00;;;2.42;;
15177;SDS011;7689;53.612;-2.416;2022-08-26T05:53:29;2.30;;;2.10;;
15177;SDS011;7689;53.612;-2.416;2022-08-26T05:55:55;2.35;;;1.70;;
15177;SDS011;7689;53.612;-2.416;2022-08-26T05:58:21;1.90;;;1.75;;
15177;SDS011;7689;53.612;-2.416;2022-08-26T06:01:04;1.95;;;1.70;;
15177;SDS011;7689;53.612;-2.416;2022-08-26T06:03:34;2.13;;;1.90;;
15177;SDS011;7689;53.612;-2.416;2022-08-26T06:06:05;5.63;;;2.40;;
15177;SDS011;7689;53.612;-2.416;2022-08-26T06:08:33;2.45;;;2.03;;
15177;SDS011;7689;53.612;-2.416;2022-08-26T06:11:00;3.70;;;2.40;;
15177;SDS011;7689;53.612;-2.416;2022-08-26T06:13:29;2.80;;;2.40;;
15177;SDS011;7689;53.612;-2.416;2022-08-26T06:15:55;3.50;;;2.60;;
15177;SDS011;7689;53.612;-2.416;2022-08-26T06:18:24;3.03;;;2.08;;
15177;SDS011;7689;53.612;-2.416;2022-08-26T06:20:56;5.25;;;2.20;;
15177;SDS011;7689;53.612;-2.416;2022-08-26T06:23:23;2.58;;;2.30;;
15177;SDS011;7689;53.612;-2.416;2022-08-26T06:26:09;5.80;;;2.00;;
15177;SDS011;7689;53.612;-2.416;2022-08-26T06:28:35;6.57;;;2.10;;
15177;SDS011;7689;53.612;-2.416;2022-08-26T06:31:01;2.35;;;2.15;;
15177;SDS011;7689;53.612;-2.416;2022-08-26T06:33:27;3.42;;;2.30;;
15177;SDS011;7689;53.612;-2.416;2022-08-26T06:35:53;2.40;;;2.30;;
15177;SDS011;7689;53.612;-2.416;2022-08-26T06:38:19;4.30;;;2.45;;
15177;SDS011;7689;53.612;-2.416;2022-08-26T06:40:46;4.32;;;2.65;;
15177;SDS011;7689;53.612;-2.416;2022-08-26T06:43:17;5.50;;;2.72;;
15177;SDS011;7689;53.612;-2.416;2022-08-26T06:45:44;5.05;;;2.63;;
15177;SDS011;7689;53.612;-2.416;2022-08-26T06:48:10;5.47;;;2.53;;
15177;SDS011;7689;53.612;-2.416;2022-08-26T06:50:38;3.90;;;2.83;;
15177;SDS011;7689;53.612;-2.416;2022-08-26T06:53:04;4.63;;;2.70;;
15177;SDS011;7689;53.612;-2.416;2022-08-26T06:55:31;11.55;;;3.00;;
15177;SDS011;7689;53.612;-2.416;2022-08-26T06:57:58;9.40;;;3.80;;
15177;SDS011;7689;53.612;-2.416;2022-08-26T07:00:23;5.13;;;3.38;;
15177;SDS011;7689;53.612;-2.416;2022-08-26T07:02:49;7.07;;;3.97;;
15177;SDS011;7689;53.612;-2.416;2022-08-26T07:05:15;5.65;;;3.83;;
15177;SDS011;7689;53.612;-2.416;2022-08-26T07:07:41;4.72;;;4.10;;
15177;SDS011;7689;53.612;-2.416;2022-08-26T07:10:07;5.88;;;4.03;;
15177;SDS011;7689;53.612;-2.416;2022-08-26T07:12:33;5.53;;;3.50;;
15177;SDS011;7689;53.612;-2.416;2022-08-26T07:15:00;6.43;;;4.10;;
15177;SDS011;7689;53.612;-2.416;2022-08-26T07:17:26;9.90;;;4.40;;
15177;SDS011;7689;53.612;-2.416;2022-08-26T07:19:52;7.30;;;4.47;;
15177;SDS011;7689;53.612;-2.416;2022-08-26T07:22:18;5.63;;;4.15;;
15177;SDS011;7689;53.612;-2.416;2022-08-26T07:24:43;7.85;;;4.32;;
15177;SDS011;7689;53.612;-2.416;2022-08-26T07:27:10;7.15;;;4.30;;
15177;SDS011;7689;53.612;-2.416;2022-08-26T07:29:39;7.47;;;4.93;;
15177;SDS011;7689;53.612;-2.416;2022-08-26T07:32:08;8.05;;;4.78;;
15177;SDS011;7689;53.612;-2.416;2022-08-26T07:34:36;7.60;;;4.22;;
15177;SDS011;7689;53.612;-2.416;2022-08-26T07:37:02;6.07;;;3.65;;
15177;SDS011;7689;53.612;-2.416;2022-08-26T07:39:28;10.73;;;4.20;;
15177;SDS011;7689;53.612;-2.416;2022-08-26T07:41:54;8.00;;;4.97;;
15177;SDS011;7689;53.612;-2.416;2022-08-26T07:44:20;5.90;;;3.97;;
15177;SDS011;7689;53.612;-2.416;2022-08-26T07:46:46;9.02;;;4.18;;
15177;SDS011;7689;53.612;-2.416;2022-08-26T07:49:11;9.00;;;4.72;;
15177;SDS011;7689;53.612;-2.416;2022-08-26T07:51:37;5.45;;;4.00;;
15177;SDS011;7689;53.612;-2.416;2022-08-26T07:54:03;6.75;;;4.10;;
15177;SDS011;7689;53.612;-2.416;2022-08-26T07:56:29;5.60;;;4.30;;
15177;SDS011;7689;53.612;-2.416;2022-08-26T07:58:55;8.63;;;4.00;;
15177;SDS011;7689;53.612;-2.416;2022-08-26T08:01:22;9.00;;;4.10;;
15177;SDS011;7689;53.612;-2.416;2022-08-26T08:03:50;7.40;;;4.60;;
15177;SDS011;7689;53.612;-2.416;2022-08-26T08:06:21;8.00;;;4.05;;
15177;SDS011;7689;53.612;-2.416;2022-08-26T08:08:49;6.28;;;3.65;;
15177;SDS011;7689;53.612;-2.416;2022-08-26T08:11:15;9.68;;;4.15;;
15177;SDS011;7689;53.612;-2.416;2022-08-26T08:13:41;9.57;;;3.78;;
15177;SDS011;7689;53.612;-2.416;2022-08-26T08:16:07;6.50;;;3.90;;
15177;SDS011;7689;53.612;-2.416;2022-08-26T08:18:33;5.22;;;3.17;;
15177;SDS011;7689;53.612;-2.416;2022-08-26T08:20:58;12.20;;;3.60;;
15177;SDS011;7689;53.612;-2.416;2022-08-26T08:23:27;6.63;;;3.67;;
15177;SDS011;7689;53.612;-2.416;2022-08-26T08:26:04;9.30;;;4.15;;
15177;SDS011;7689;53.612;-2.416;2022-08-26T08:28:35;6.80;;;3.47;;
15177;SDS011;7689;53.612;-2.416;2022-08-26T08:31:02;9.73;;;3.78;;
15177;SDS011;7689;53.612;-2.416;2022-08-26T08:33:27;4.15;;;3.00;;
15177;SDS011;7689;53.612;-2.416;2022-08-26T08:35:54;5.95;;;3.20;;
15177;SDS011;7689;53.612;-2.416;2022-08-26T08:38:21;6.55;;;2.95;;
15177;SDS011;7689;53.612;-2.416;2022-08-26T08:40:46;6.38;;;2.90;;
15177;SDS011;7689;53.612;-2.416;2022-08-26T08:43:25;11.30;;;3.65;;
15177;SDS011;7689;53.612;-2.416;2022-08-26T08:46:04;8.77;;;3.67;;
15177;SDS011;7689;53.612;-2.416;2022-08-26T08:48:34;7.50;;;2.97;;
15177;SDS011;7689;53.612;-2.416;2022-08-26T08:53:41;7.93;;;3.17;;
15177;SDS011;7689;53.612;-2.416;2022-08-26T09:06:51;7.13;;;2.58;;
15177;SDS011;7689;53.612;-2.416;2022-08-26T09:09:21;6.68;;;2.60;;
15177;SDS011;7689;53.612;-2.416;2022-08-26T09:12:00;7.93;;;2.70;;
15177;SDS011;7689;53.612;-2.416;2022-08-26T09:14:27;5.97;;;2.55;;
15177;SDS011;7689;53.612;-2.416;2022-08-26T09:19:42;6.28;;;2.40;;
15177;SDS011;7689;53.612;-2.416;2022-08-26T09:22:28;5.72;;;2.63;;
15177;SDS011;7689;53.612;-2.416;2022-08-26T09:24:57;5.00;;;2.22;;
15177;SDS011;7689;53.612;-2.416;2022-08-26T09:27:40;4.80;;;2.58;;
15177;SDS011;7689;53.612;-2.416;2022-08-26T09:30:08;6.20;;;2.55;;
15177;SDS011;7689;53.612;-2.416;2022-08-26T09:32:36;5.90;;;2.13;;
15177;SDS011;7689;53.612;-2.416;2022-08-26T09:35:03;4.05;;;2.30;;
15177;SDS011;7689;53.612;-2.416;2022-08-26T09:40:11;4.63;;;2.22;;
15177;SDS011;7689;53.612;-2.416;2022-08-26T09:42:42;3.58;;;2.05;;
15177;SDS011;7689;53.612;-2.416;2022-08-26T09:45:08;4.00;;;2.40;;
15177;SDS011;7689;53.612;-2.416;2022-08-26T09:47:50;3.42;;;2.22;;
15177;SDS011;7689;53.612;-2.416;2022-08-26T09:50:28;8.07;;;2.80;;
15177;SDS011;7689;53.612;-2.416;2022-08-26T09:53:02;4.13;;;2.20;;
15177;SDS011;7689;53.612;-2.416;2022-08-26T09:55:30;5.53;;;2.28;;
15177;SDS011;7689;53.612;-2.416;2022-08-26T09:57:56;8.50;;;2.38;;
15177;SDS011;7689;53.612;-2.416;2022-08-26T10:02:50;4.53;;;2.08;;
15177;SDS011;7689;53.612;-2.416;2022-08-26T10:05:17;3.92;;;1.90;;
15177;SDS011;7689;53.612;-2.416;2022-08-26T10:07:54;4.35;;;1.55;;
15177;SDS011;7689;53.612;-2.416;2022-08-26T10:10:24;4.65;;;2.10;;
15177;SDS011;7689;53.612;-2.416;2022-08-26T10:12:53;4.90;;;2.38;;
15177;SDS011;7689;53.612;-2.416;2022-08-26T10:15:25;4.63;;;2.35;;
15177;SDS011;7689;53.612;-2.416;2022-08-26T10:17:58;7.55;;;2.72;;
15177;SDS011;7689;53.612;-2.416;2022-08-26T10:20:34;2.45;;;1.70;;
15177;SDS011;7689;53.612;-2.416;2022-08-26T10:23:14;4.53;;;1.77;;
15177;SDS011;7689;53.612;-2.416;2022-08-26T10:28:21;2.13;;;1.80;;
15177;SDS011;7689;53.612;-2.416;2022-08-26T10:30:59;3.85;;;1.80;;
15177;SDS011;7689;53.612;-2.416;2022-08-26T10:33:31;3.80;;;2.05;;
15177;SDS011;7689;53.612;-2.416;2022-08-26T10:35:58;6.32;;;2.30;;
15177;SDS011;7689;53.612;-2.416;2022-08-26T10:38:33;4.40;;;2.00;;
15177;SDS011;7689;53.612;-2.416;2022-08-26T10:41:13;4.40;;;1.85;;
15177;SDS011;7689;53.612;-2.416;2022-08-26T10:43:48;3.67;;;2.10;;
15177;SDS011;7689;53.612;-2.416;2022-08-26T10:46:21;3.33;;;1.63;;
15177;SDS011;7689;53.612;-2.416;2022-08-26T10:51:33;2.22;;;1.60;;
15177;SDS011;7689;53.612;-2.416;2022-08-26T10:54:08;5.00;;;1.92;;
15177;SDS011;7689;53.612;-2.416;2022-08-26T11:02:45;3.22;;;1.55;;
15177;SDS011;7689;53.612;-2.416;2022-08-26T11:05:17;3.83;;;1.80;;
15177;SDS011;7689;53.612;-2.416;2022-08-26T11:07:49;2.53;;;1.85;;
15177;SDS011;7689;53.612;-2.416;2022-08-26T11:13:07;2.47;;;1.63;;
15177;SDS011;7689;53.612;-2.416;2022-08-26T11:18:10;4.03;;;2.10;;
15177;SDS011;7689;53.612;-2.416;2022-08-26T11:20:56;1.95;;;1.80;;
15177;SDS011;7689;53.612;-2.416;2022-08-26T11:28:36;8.20;;;2.45;;
15177;SDS011;7689;53.612;-2.416;2022-08-26T11:34:01;1.83;;;1.65;;
15177;SDS011;7689;53.612;-2.416;2022-08-26T11:41:51;4.90;;;2.58;;
15177;SDS011;7689;53.612;-2.416;2022-08-26T11:44:22;5.20;;;2.50;;
15177;SDS011;7689;53.612;-2.416;2022-08-26T11:49:27;2.88;;;1.90;;
15177;SDS011;7689;53.612;-2.416;2022-08-26T11:52:08;5.47;;;2.15;;
15177;SDS011;7689;53.612;-2.416;2022-08-26T11:57:39;4.65;;;2.28;;
15177;SDS011;7689;53.612;-2.416;2022-08-26T12:00:09;4.90;;;2.15;;
15177;SDS011;7689;53.612;-2.416;2022-08-26T12:02:42;3.22;;;2.30;;
15177;SDS011;7689;53.612;-2.416;2022-08-26T12:05:08;3.85;;;2.40;;
15177;SDS011;7689;53.612;-2.416;2022-08-26T12:07:36;4.70;;;2.28;;
15177;SDS011;7689;53.612;-2.416;2022-08-26T12:10:03;4.70;;;2.55;;
15177;SDS011;7689;53.612;-2.416;2022-08-26T12:12:35;4.95;;;2.83;;
15177;SDS011;7689;53.612;-2.416;2022-08-26T12:17:43;2.35;;;2.03;;
15177;SDS011;7689;53.612;-2.416;2022-08-26T12:26:30;3.47;;;2.20;;
15177;SDS011;7689;53.612;-2.416;2022-08-26T12:29:05;3.95;;;2.50;;
15177;SDS011;7689;53.612;-2.416;2022-08-26T12:34:05;2.97;;;2.10;;
15177;SDS011;7689;53.612;-2.416;2022-08-26T12:39:13;3.42;;;2.20;;
15177;SDS011;7689;53.612;-2.416;2022-08-26T12:41:49;3.85;;;2.05;;
15177;SDS011;7689;53.612;-2.416;2022-08-26T12:44:30;2.50;;;1.92;;
15177;SDS011;7689;53.612;-2.416;2022-08-26T12:49:36;2.47;;;2.05;;
15177;SDS011;7689;53.612;-2.416;2022-08-26T12:52:04;4.53;;;2.35;;
15177;SDS011;7689;53.612;-2.416;2022-08-26T12:54:31;5.80;;;2.13;;
15177;SDS011;7689;53.612;-2.416;2022-08-26T12:57:26;4.18;;;2.30;;
15177;SDS011;7689;53.612;-2.416;2022-08-26T13:00:21;10.02;;;2.65;;
15177;SDS011;7689;53.612;-2.416;2022-08-26T13:02:51;2.10;;;1.83;;
15177;SDS011;7689;53.612;-2.416;2022-08-26T13:05:20;3.10;;;2.15;;
15177;SDS011;7689;53.612;-2.416;2022-08-26T13:10:35;4.18;;;2.28;;
15177;SDS011;7689;53.612;-2.416;2022-08-26T13:13:03;3.45;;;2.17;;
15177;SDS011;7689;53.612;-2.416;2022-08-26T13:15:29;4.97;;;2.15;;
15177;SDS011;7689;53.612;-2.416;2022-08-26T13:17:54;3.03;;;2.08;;
15177;SDS011;7689;53.612;-2.416;2022-08-26T13:20:20;3.10;;;2.10;;
15177;SDS011;7689;53.612;-2.416;2022-08-26T13:22:47;2.55;;;1.95;;
15177;SDS011;7689;53.612;-2.416;2022-08-26T13:25:14;2.25;;;2.05;;
15177;SDS011;7689;53.612;-2.416;2022-08-26T13:27:40;3.22;;;2.10;;
15177;SDS011;7689;53.612;-2.416;2022-08-26T13:30:05;4.35;;;2.10;;
15177;SDS011;7689;53.612;-2.416;2022-08-26T13:32:31;2.65;;;2.17;;
15177;SDS011;7689;53.612;-2.416;2022-08-26T13:34:57;5.30;;;2.55;;
15177;SDS011;7689;53.612;-2.416;2022-08-26T13:37:23;3.05;;;2.00;;
15177;SDS011;7689;53.612;-2.416;2022-08-26T13:39:51;3.85;;;2.20;;
15177;SDS011;7689;53.612;-2.416;2022-08-26T13:42:17;2.95;;;2.00;;
15177;SDS011;7689;53.612;-2.416;2022-08-26T13:44:44;3.08;;;1.85;;
15177;SDS011;7689;53.612;-2.416;2022-08-26T13:47:13;5.00;;;2.40;;
15177;SDS011;7689;53.612;-2.416;2022-08-26T13:49:39;3.58;;;2.10;;
15177;SDS011;7689;53.612;-2.416;2022-08-26T13:52:04;3.97;;;2.45;;
15177;SDS011;7689;53.612;-2.416;2022-08-26T13:54:30;8.30;;;2.17;;
15177;SDS011;7689;53.612;-2.416;2022-08-26T13:56:56;3.08;;;2.03;;
15177;SDS011;7689;53.612;-2.416;2022-08-26T13:59:21;4.43;;;2.00;;
15177;SDS011;7689;53.612;-2.416;2022-08-26T14:01:47;2.63;;;1.80;;
15177;SDS011;7689;53.612;-2.416;2022-08-26T14:04:13;4.07;;;2.03;;
15177;SDS011;7689;53.612;-2.416;2022-08-26T14:06:39;2.63;;;1.98;;
15177;SDS011;7689;53.612;-2.416;2022-08-26T14:09:04;3.60;;;1.92;;
15177;SDS011;7689;53.612;-2.416;2022-08-26T14:11:30;4.15;;;2.08;;
15177;SDS011;7689;53.612;-2.416;2022-08-26T14:13:55;4.85;;;1.92;;
15177;SDS011;7689;53.612;-2.416;2022-08-26T14:16:23;5.07;;;2.13;;
15177;SDS011;7689;53.612;-2.416;2022-08-26T14:18:57;4.80;;;2.08;;
15177;SDS011;7689;53.612;-2.416;2022-08-26T14:21:29;2.33;;;1.90;;
15177;SDS011;7689;53.612;-2.416;2022-08-26T14:23:57;3.97;;;1.80;;
15177;SDS011;7689;53.612;-2.416;2022-08-26T14:26:23;2.58;;;1.95;;
15177;SDS011;7689;53.612;-2.416;2022-08-26T14:28:49;5.55;;;2.15;;
15177;SDS011;7689;53.612;-2.416;2022-08-26T14:31:14;5.80;;;2.25;;
15177;SDS011;7689;53.612;-2.416;2022-08-26T14:33:41;5.90;;;2.25;;
15177;SDS011;7689;53.612;-2.416;2022-08-26T14:36:07;2.65;;;1.98;;
15177;SDS011;7689;53.612;-2.416;2022-08-26T14:38:52;3.50;;;1.85;;
15177;SDS011;7689;53.612;-2.416;2022-08-26T14:41:18;6.88;;;2.15;;
15177;SDS011;7689;53.612;-2.416;2022-08-26T14:43:49;5.60;;;2.00;;
15177;SDS011;7689;53.612;-2.416;2022-08-26T14:46:21;2.65;;;2.42;;
15177;SDS011;7689;53.612;-2.416;2022-08-26T14:48:52;3.40;;;2.00;;
15177;SDS011;7689;53.612;-2.416;2022-08-26T14:51:18;2.92;;;1.70;;
15177;SDS011;7689;53.612;-2.416;2022-08-26T14:53:45;2.83;;;1.98;;
15177;SDS011;7689;53.612;-2.416;2022-08-26T14:56:30;3.63;;;2.10;;
15177;SDS011;7689;53.612;-2.416;2022-08-26T14:58:58;4.90;;;2.00;;
15177;SDS011;7689;53.612;-2.416;2022-08-26T15:01:24;6.97;;;2.20;;
15177;SDS011;7689;53.612;-2.416;2022-08-26T15:03:50;2.25;;;1.77;;
15177;SDS011;7689;53.612;-2.416;2022-08-26T15:06:16;3.40;;;1.90;;
15177;SDS011;7689;53.612;-2.416;2022-08-26T15:08:43;5.93;;;2.03;;
15177;SDS011;7689;53.612;-2.416;2022-08-26T15:11:08;8.07;;;2.58;;
15177;SDS011;7689;53.612;-2.416;2022-08-26T15:13:34;4.57;;;2.53;;
15177;SDS011;7689;53.612;-2.416;2022-08-26T15:16:00;4.53;;;1.80;;
15177;SDS011;7689;53.612;-2.416;2022-08-26T15:18:26;5.10;;;2.20;;
15177;SDS011;7689;53.612;-2.416;2022-08-26T15:20:52;6.13;;;2.17;;
15177;SDS011;7689;53.612;-2.416;2022-08-26T15:23:17;4.38;;;1.83;;
15177;SDS011;7689;53.612;-2.416;2022-08-26T15:25:44;5.60;;;2.00;;
15177;SDS011;7689;53.612;-2.416;2022-08-26T15:28:09;2.10;;;1.83;;
15177;SDS011;7689;53.612;-2.416;2022-08-26T15:30:35;3.28;;;1.90;;
15177;SDS011;7689;53.612;-2.416;2022-08-26T15:33:01;6.10;;;2.00;;
15177;SDS011;7689;53.612;-2.416;2022-08-26T15:35:27;3.58;;;2.00;;
15177;SDS011;7689;53.612;-2.416;2022-08-26T15:37:52;7.57;;;2.03;;
15177;SDS011;7689;53.612;-2.416;2022-08-26T15:40:18;3.03;;;1.95;;
15177;SDS011;7689;53.612;-2.416;2022-08-26T15:42:44;3.05;;;2.00;;
15177;SDS011;7689;53.612;-2.416;2022-08-26T15:45:10;3.58;;;2.08;;
15177;SDS011;7689;53.612;-2.416;2022-08-26T15:47:36;2.85;;;2.10;;
15177;SDS011;7689;53.612;-2.416;2022-08-26T15:50:04;4.05;;;1.88;;
15177;SDS011;7689;53.612;-2.416;2022-08-26T15:52:30;4.50;;;2.13;;
15177;SDS011;7689;53.612;-2.416;2022-08-26T15:54:56;4.32;;;2.10;;
15177;SDS011;7689;53.612;-2.416;2022-08-26T15:57:22;2.53;;;1.95;;
15177;SDS011;7689;53.612;-2.416;2022-08-26T15:59:47;2.30;;;2.10;;
15177;SDS011;7689;53.612;-2.416;2022-08-26T16:02:13;4.53;;;2.08;;
15177;SDS011;7689;53.612;-2.416;2022-08-26T16:04:39;9.50;;;4.10;;
15177;SDS011;7689;53.612;-2.416;2022-08-26T16:07:05;24.88;;;10.05;;
15177;SDS011;7689;53.612;-2.416;2022-08-26T16:09:30;5.05;;;2.10;;
15177;SDS011;7689;53.612;-2.416;2022-08-26T16:11:56;6.25;;;1.95;;
15177;SDS011;7689;53.612;-2.416;2022-08-26T16:14:22;6.03;;;2.10;;
15177;SDS011;7689;53.612;-2.416;2022-08-26T16:16:49;4.20;;;2.25;;